Time,TemperatureF,DewpointF,PressureIn,WindDirection,WindDirectionDegrees,WindSpeedMPH,WindSpeedGustMPH,Humidity,HourlyPrecipIn,Conditions,Clouds,dailyrainin,SoftwareType,DateUTC
2013-01-10 00:06:00,63.1,62.0,30.27,ENE,62,0.0,4.0,96,0.00,,,0.00,weatherlink.com 1.10,2013-01-10 06:06:00,
2013-01-10 00:21:00,63.2,62.0,30.27,ESE,104,3.0,4.0,96,0.00,,,0.00,weatherlink.com 1.10,2013-01-10 06:21:00,
2013-01-10 00:36:00,63.4,62.0,30.27,East,89,0.0,2.0,96,0.00,,,0.00,weatherlink.com 1.10,2013-01-10 06:36:00,
2013-01-10 00:51:00,63.5,62.0,30.28,ENE,57,0.0,3.0,96,0.00,,,0.00,weatherlink.com 1.10,2013-01-10 06:51:00,
2013-01-10 01:06:00,63.7,63.0,30.27,ENE,77,1.0,3.0,96,0.00,,,0.00,weatherlink.com 1.10,2013-01-10 07:06:00,
2013-01-10 01:21:00,64.1,63.0,30.27,ENE,76,0.0,5.0,96,0.00,,,0.00,weatherlink.com 1.10,2013-01-10 07:21:00,
2013-01-10 01:36:00,64.3,63.0,30.26,NE,40,3.0,6.0,96,0.00,,,0.00,weatherlink.com 1.10,2013-01-10 07:36:00,
2013-01-10 01:51:00,64.5,63.0,30.27,NNW,330,2.0,6.0,96,0.00,,,0.00,weatherlink.com 1.10,2013-01-10 07:51:00,
2013-01-10 02:06:00,64.5,63.0,30.27,NE,46,4.0,5.0,96,0.00,,,0.00,weatherlink.com 1.10,2013-01-10 08:06:00,
2013-01-10 02:21:00,64.6,64.0,30.27,ESE,106,0.0,5.0,96,0.00,,,0.00,weatherlink.com 1.10,2013-01-10 08:21:00,
2013-01-10 02:37:00,64.5,63.0,30.26,ENE,67,2.0,4.0,96,0.00,,,0.00,weatherlink.com 1.10,2013-01-10 08:37:00,
2013-01-10 02:51:00,64.6,64.0,30.26,ENE,58,3.0,5.0,96,0.00,,,0.00,weatherlink.com 1.10,2013-01-10 08:51:00,
2013-01-10 03:06:00,64.6,64.0,30.25,North,6,3.0,8.0,96,0.00,,,0.00,weatherlink.com 1.10,2013-01-10 09:06:00,
2013-01-10 03:21:00,64.7,64.0,30.25,NE,55,3.0,4.0,96,0.00,,,0.00,weatherlink.com 1.10,2013-01-10 09:21:00,
2013-01-10 03:36:00,64.8,64.0,30.25,ENE,62,0.0,6.0,96,0.00,,,0.00,weatherlink.com 1.10,2013-01-10 09:36:00,
2013-01-10 03:51:00,64.9,64.0,30.25,NE,48,7.0,7.0,96,0.00,,,0.00,weatherlink.com 1.10,2013-01-10 09:51:00,
2013-01-10 04:06:00,65.0,64.0,30.24,ESE,105,1.0,8.0,96,0.00,,,0.00,weatherlink.com 1.10,2013-01-10 10:06:00,
2013-01-10 04:22:00,65.0,64.0,30.24,ESE,116,1.0,7.0,96,0.00,,,0.00,weatherlink.com 1.10,2013-01-10 10:22:00,
2013-01-10 04:36:00,65.2,64.0,30.23,ESE,116,3.0,6.0,96,0.00,,,0.00,weatherlink.com 1.10,2013-01-10 10:36:00,
2013-01-10 04:51:00,65.2,64.0,30.23,ENE,64,2.0,6.0,96,0.00,,,0.00,weatherlink.com 1.10,2013-01-10 10:51:00,
2013-01-10 05:06:00,65.2,64.0,30.23,East,91,3.0,5.0,96,0.00,,,0.00,weatherlink.com 1.10,2013-01-10 11:06:00,
2013-01-10 05:21:00,65.4,64.0,30.23,ESE,108,0.0,5.0,96,0.01,,,0.01,weatherlink.com 1.10,2013-01-10 11:21:00,
2013-01-10 05:36:00,65.5,64.0,30.22,ENE,72,1.0,5.0,96,0.01,,,0.01,weatherlink.com 1.10,2013-01-10 11:36:00,
2013-01-10 05:52:00,65.7,65.0,30.22,NNE,26,3.0,8.0,96,0.01,,,0.01,weatherlink.com 1.10,2013-01-10 11:52:00,
2013-01-10 06:07:00,65.8,65.0,30.22,ENE,61,0.0,6.0,96,0.01,,,0.01,weatherlink.com 1.10,2013-01-10 12:07:00,
2013-01-10 06:22:00,66.0,65.0,30.22,East,86,3.0,8.0,96,0.00,,,0.01,weatherlink.com 1.10,2013-01-10 12:22:00,
2013-01-10 06:37:00,66.2,65.0,30.22,East,96,3.0,10.0,96,0.00,,,0.01,weatherlink.com 1.10,2013-01-10 12:37:00,
2013-01-10 06:52:00,66.5,65.0,30.22,East,90,5.0,7.0,96,0.00,,,0.01,weatherlink.com 1.10,2013-01-10 12:52:00,
2013-01-10 07:07:00,66.7,66.0,30.22,East,93,4.0,8.0,96,0.00,,,0.01,weatherlink.com 1.10,2013-01-10 13:07:00,
2013-01-10 07:22:00,67.0,66.0,30.23,East,92,5.0,8.0,96,0.00,,,0.01,weatherlink.com 1.10,2013-01-10 13:22:00,
2013-01-10 07:37:00,67.1,66.0,30.23,ESE,107,3.0,5.0,97,0.00,,,0.01,weatherlink.com 1.10,2013-01-10 13:37:00,
2013-01-10 07:52:00,67.3,66.0,30.23,SSE,165,3.0,7.0,96,0.00,,,0.01,weatherlink.com 1.10,2013-01-10 13:52:00,
2013-01-10 08:07:00,67.5,66.0,30.24,South,176,2.0,8.0,96,0.00,,,0.01,weatherlink.com 1.10,2013-01-10 14:07:00,
2013-01-10 08:22:00,67.7,67.0,30.24,ENE,68,4.0,7.0,97,0.00,,,0.01,weatherlink.com 1.10,2013-01-10 14:22:00,
2013-01-10 08:37:00,67.8,67.0,30.25,ENE,77,3.0,5.0,97,0.00,,,0.01,weatherlink.com 1.10,2013-01-10 14:37:00,
2013-01-10 08:52:00,67.9,67.0,30.25,ESE,103,3.0,4.0,96,0.00,,,0.01,weatherlink.com 1.10,2013-01-10 14:52:00,
2013-01-10 09:07:00,68.0,67.0,30.25,South,180,0.0,7.0,97,0.00,,,0.01,weatherlink.com 1.10,2013-01-10 15:07:00,
2013-01-10 09:22:00,68.3,68.0,30.25,ESE,105,2.0,7.0,97,0.00,,,0.01,weatherlink.com 1.10,2013-01-10 15:22:00,
2013-01-10 09:37:00,68.6,68.0,30.25,ESE,118,2.0,7.0,97,0.00,,,0.01,weatherlink.com 1.10,2013-01-10 15:37:00,
2013-01-10 09:52:00,69.1,68.0,30.26,ESE,109,5.0,8.0,97,0.00,,,0.01,weatherlink.com 1.10,2013-01-10 15:52:00,
2013-01-10 10:07:00,69.4,68.0,30.26,SE,133,2.0,9.0,96,0.00,,,0.01,weatherlink.com 1.10,2013-01-10 16:07:00,
2013-01-10 10:22:00,70.9,70.0,30.26,SSE,150,2.0,11.0,95,0.00,,,0.01,weatherlink.com 1.10,2013-01-10 16:22:00,
2013-01-10 10:37:00,71.5,69.0,30.25,SE,140,2.0,10.0,92,0.00,,,0.01,weatherlink.com 1.10,2013-01-10 16:37:00,
2013-01-10 10:52:00,72.3,69.0,30.25,SSE,164,5.0,9.0,90,0.00,,,0.01,weatherlink.com 1.10,2013-01-10 16:52:00,
2013-01-10 11:07:00,73.1,69.0,30.24,East,90,3.0,11.0,88,0.00,,,0.01,weatherlink.com 1.10,2013-01-10 17:07:00,
2013-01-10 11:22:00,73.4,69.0,30.23,SE,138,3.0,10.0,87,0.00,,,0.01,weatherlink.com 1.10,2013-01-10 17:22:00,
2013-01-10 11:37:00,75.4,69.0,30.22,ESE,103,1.0,10.0,81,0.00,,,0.01,weatherlink.com 1.10,2013-01-10 17:37:00,
2013-01-10 11:52:00,75.4,69.0,30.21,SE,134,4.0,13.0,79,0.00,,,0.01,weatherlink.com 1.10,2013-01-10 17:52:00,
2013-01-10 12:07:00,76.6,68.0,30.20,East,101,6.0,11.0,75,0.00,,,0.01,weatherlink.com 1.10,2013-01-10 18:07:00,
2013-01-10 12:23:00,76.7,68.0,30.20,ESE,105,4.0,15.0,75,0.00,,,0.01,weatherlink.com 1.10,2013-01-10 18:23:00,
2013-01-10 12:38:00,77.4,68.0,30.19,SE,126,5.0,13.0,72,0.00,,,0.01,weatherlink.com 1.10,2013-01-10 18:38:00,
2013-01-10 12:53:00,77.5,68.0,30.17,ESE,120,3.0,10.0,72,0.00,,,0.01,weatherlink.com 1.10,2013-01-10 18:53:00,
2013-01-10 13:08:00,77.9,67.0,30.18,East,80,7.0,13.0,69,0.00,,,0.01,weatherlink.com 1.10,2013-01-10 19:08:00,
2013-01-10 13:23:00,77.8,67.0,30.18,SE,127,3.0,9.0,70,0.00,,,0.01,weatherlink.com 1.10,2013-01-10 19:23:00,
2013-01-10 13:38:00,76.5,67.0,30.17,South,184,3.0,13.0,72,0.00,,,0.01,weatherlink.com 1.10,2013-01-10 19:38:00,
2013-01-10 13:53:00,76.0,67.0,30.17,East,89,2.0,13.0,73,0.00,,,0.01,weatherlink.com 1.10,2013-01-10 19:53:00,
2013-01-10 14:08:00,77.1,67.0,30.17,SE,127,4.0,9.0,72,0.00,,,0.01,weatherlink.com 1.10,2013-01-10 20:08:00,
2013-01-10 14:23:00,77.3,67.0,30.17,ESE,104,2.0,11.0,71,0.00,,,0.01,weatherlink.com 1.10,2013-01-10 20:23:00,
2013-01-10 14:53:00,76.8,67.0,30.16,SE,135,3.0,8.0,71,0.00,,,0.01,weatherlink.com 1.10,2013-01-10 20:53:00,
2013-01-10 15:08:00,77.6,65.0,30.16,South,187,4.0,13.0,65,0.00,,,0.01,weatherlink.com 1.10,2013-01-10 21:08:00,
2013-01-10 15:23:00,77.2,65.0,30.17,SE,143,3.0,9.0,66,0.00,,,0.01,weatherlink.com 1.10,2013-01-10 21:23:00,
2013-01-10 15:38:00,76.3,65.0,30.18,SSW,194,2.0,11.0,67,0.00,,,0.01,weatherlink.com 1.10,2013-01-10 21:38:00,
2013-01-10 15:53:00,75.5,65.0,30.17,South,177,5.0,12.0,69,0.00,,,0.01,weatherlink.com 1.10,2013-01-10 21:53:00,
2013-01-10 16:08:00,74.8,65.0,30.17,SSE,159,3.0,7.0,72,0.00,,,0.01,weatherlink.com 1.10,2013-01-10 22:08:00,
2013-01-10 16:23:00,73.9,65.0,30.17,SSW,198,2.0,6.0,74,0.00,,,0.01,weatherlink.com 1.10,2013-01-10 22:23:00,
2013-01-10 16:38:00,73.3,65.0,30.18,SE,136,5.0,8.0,76,0.00,,,0.01,weatherlink.com 1.10,2013-01-10 22:38:00,
2013-01-10 16:53:00,72.7,65.0,30.18,WSW,247,1.0,5.0,77,0.00,,,0.01,weatherlink.com 1.10,2013-01-10 22:53:00,
2013-01-10 17:08:00,71.9,65.0,30.18,SSE,158,0.0,7.0,79,0.00,,,0.01,weatherlink.com 1.10,2013-01-10 23:08:00,
2013-01-10 17:23:00,71.1,65.0,30.18,SE,142,3.0,4.0,81,0.00,,,0.01,weatherlink.com 1.10,2013-01-10 23:23:00,
2013-01-10 17:38:00,70.8,65.0,30.17,East,100,5.0,5.0,82,0.00,,,0.01,weatherlink.com 1.10,2013-01-10 23:38:00,
2013-01-10 17:53:00,70.4,65.0,30.17,ESE,110,2.0,5.0,82,0.00,,,0.01,weatherlink.com 1.10,2013-01-10 23:53:00,
2013-01-10 18:08:00,69.9,65.0,30.16,ESE,110,1.0,4.0,83,0.00,,,0.01,weatherlink.com 1.10,2013-01-11 00:08:00,
2013-01-10 18:38:00,69.5,65.0,30.16,SSE,156,1.0,6.0,85,0.00,,,0.01,weatherlink.com 1.10,2013-01-11 00:38:00,
2013-01-10 18:53:00,69.4,65.0,30.16,ESE,116,1.0,5.0,85,0.00,,,0.01,weatherlink.com 1.10,2013-01-11 00:53:00,
2013-01-10 19:08:00,69.2,65.0,30.16,SE,141,2.0,5.0,86,0.00,,,0.01,weatherlink.com 1.10,2013-01-11 01:08:00,
2013-01-10 19:23:00,69.6,65.0,30.17,SSE,149,6.0,10.0,85,0.00,,,0.01,weatherlink.com 1.10,2013-01-11 01:23:00,
2013-01-10 19:38:00,69.4,65.0,30.17,SE,124,4.0,8.0,85,0.00,,,0.01,weatherlink.com 1.10,2013-01-11 01:38:00,
2013-01-10 19:53:00,69.2,65.0,30.18,ESE,109,2.0,5.0,85,0.00,,,0.01,weatherlink.com 1.10,2013-01-11 01:53:00,
2013-01-10 20:08:00,69.1,65.0,30.17,East,98,4.0,4.0,85,0.00,,,0.01,weatherlink.com 1.10,2013-01-11 02:08:00,
2013-01-10 20:23:00,69.4,64.0,30.16,East,94,8.0,13.0,84,0.00,,,0.01,weatherlink.com 1.10,2013-01-11 02:23:00,
2013-01-10 20:38:00,69.7,64.0,30.15,ESE,122,9.0,13.0,83,0.00,,,0.01,weatherlink.com 1.10,2013-01-11 02:38:00,
2013-01-10 20:53:00,69.8,64.0,30.15,ESE,107,13.0,18.0,83,0.00,,,0.01,weatherlink.com 1.10,2013-01-11 02:53:00,
2013-01-10 21:08:00,69.9,65.0,30.15,SE,139,3.0,18.0,83,0.00,,,0.01,weatherlink.com 1.10,2013-01-11 03:08:00,
2013-01-10 21:23:00,69.5,64.0,30.16,ENE,68,4.0,12.0,83,0.00,,,0.01,weatherlink.com 1.10,2013-01-11 03:23:00,
2013-01-10 21:39:00,69.2,64.0,30.15,SE,135,3.0,11.0,84,0.00,,,0.01,weatherlink.com 1.10,2013-01-11 03:39:00,
2013-01-10 21:53:00,69.0,65.0,30.15,SSE,148,2.0,11.0,86,0.00,,,0.01,weatherlink.com 1.10,2013-01-11 03:53:00,
2013-01-10 22:08:00,69.0,65.0,30.13,SE,131,4.0,13.0,86,0.00,,,0.01,weatherlink.com 1.10,2013-01-11 04:08:00,
2013-01-10 22:23:00,69.2,65.0,30.12,East,91,4.0,17.0,86,0.00,,,0.01,weatherlink.com 1.10,2013-01-11 04:23:00,
2013-01-10 22:38:00,69.2,65.0,30.13,East,86,3.0,15.0,86,0.00,,,0.01,weatherlink.com 1.10,2013-01-11 04:38:00,
2013-01-10 22:53:00,68.9,65.0,30.13,SSW,200,3.0,12.0,86,0.00,,,0.01,weatherlink.com 1.10,2013-01-11 04:53:00,
2013-01-10 23:08:00,68.6,65.0,30.12,SSE,158,4.0,16.0,87,0.00,,,0.01,weatherlink.com 1.10,2013-01-11 05:08:00,
2013-01-10 23:23:00,68.6,64.0,30.11,ESE,115,2.0,22.0,84,0.00,,,0.01,weatherlink.com 1.10,2013-01-11 05:23:00,
2013-01-10 23:38:00,68.8,64.0,30.08,SE,125,10.0,21.0,83,0.00,,,0.01,weatherlink.com 1.10,2013-01-11 05:38:00,
2013-01-10 23:54:00,69.4,64.0,30.10,SSE,160,5.0,18.0,82,0.00,,,0.01,weatherlink.com 1.10,2013-01-11 05:54:00,